Time;durP1;ratioP1;P1;durP2;ratioP2;P2;SDS_P1;SDS_P2;PMS_P1;PMS_P2;Temp;Humidity;BMP_temperature;BMP_pressure;BME280_temperature;BME280_humidity;BME280_pressure;Samples;Min_cycle;Max_cycle;Signal;HPM_P1;HPM_P2
2021/04/27 00:01:17;;;;;;;2.17;1.52;;;;;;;;;;5036137;28;20064;-73
2021/04/27 00:03:42;;;;;;;6.97;1.75;;;;;;;;;;5036194;28;20029;-73
2021/04/27 00:06:08;;;;;;;3.47;1.95;;;;;;;;;;5034719;28;20037;-73
2021/04/27 00:08:33;;;;;;;3.92;1.60;;;;;;;;;;5036402;28;20040;-73
2021/04/27 00:10:59;;;;;;;2.13;1.50;;;;;;;;;;5035137;28;20386;-73
2021/04/27 00:13:26;;;;;;;2.67;1.67;;;;;;;;;;5035930;28;20483;-73
2021/04/27 00:15:52;;;;;;;3.58;2.03;;;;;;;;;;5036042;28;20033;-73
2021/04/27 00:18:17;;;;;;;2.22;1.80;;;;;;;;;;5035571;28;20410;-74
2021/04/27 00:20:43;;;;;;;1.90;1.50;;;;;;;;;;5036029;28;20036;-74
2021/04/27 00:23:08;;;;;;;6.13;3.47;;;;;;;;;;5034748;28;20095;-74
2021/04/27 00:25:33;;;;;;;2.13;1.80;;;;;;;;;;5036298;28;20033;-73
2021/04/27 00:27:59;;;;;;;2.55;1.70;;;;;;;;;;5035917;28;20426;-73
2021/04/27 00:30:27;;;;;;;4.95;1.60;;;;;;;;;;5035756;28;20037;-73
2021/04/27 00:32:53;;;;;;;2.15;1.35;;;;;;;;;;5035520;28;20033;-73
2021/04/27 00:35:19;;;;;;;3.05;1.60;;;;;;;;;;5034441;28;20037;-73
2021/04/27 00:37:45;;;;;;;5.90;2.10;;;;;;;;;;5035552;28;20447;-74
2021/04/27 00:40:13;;;;;;;4.70;1.77;;;;;;;;;;5035828;28;20505;-73
2021/04/27 00:42:41;;;;;;;7.28;2.40;;;;;;;;;;5035393;28;20037;-74
2021/04/27 00:45:09;;;;;;;2.55;1.90;;;;;;;;;;5034438;28;20053;-74
2021/04/27 00:47:35;;;;;;;3.85;1.63;;;;;;;;;;5033293;28;20501;-73
2021/04/27 00:50:04;;;;;;;2.95;1.85;;;;;;;;;;5034830;28;20049;-74
2021/04/27 00:52:29;;;;;;;5.28;1.50;;;;;;;;;;5034271;28;20104;-73
2021/04/27 00:54:55;;;;;;;1.50;1.40;;;;;;;;;;5035075;28;20112;-73
2021/04/27 00:57:21;;;;;;;1.58;1.40;;;;;;;;;;5034928;28;20501;-73
2021/04/27 00:59:47;;;;;;;2.75;1.48;;;;;;;;;;5034993;28;20398;-73
2021/04/27 01:02:13;;;;;;;1.98;1.60;;;;;;;;;;5034911;28;20075;-73
2021/04/27 01:04:38;;;;;;;2.88;1.83;;;;;;;;;;5034224;28;20128;-73
2021/04/27 01:07:04;;;;;;;2.85;1.83;;;;;;;;;;5033950;28;20475;-73
2021/04/27 01:09:41;;;;;;;2.40;1.83;;;;;;;;;;5035070;28;20029;-73
2021/04/27 01:12:19;;;;;;;6.45;2.17;;;;;;;;;;5035110;28;20029;-73
2021/04/27 01:14:51;;;;;;;3.72;1.98;;;;;;;;;;5032832;28;20471;-73
2021/04/27 01:17:19;;;;;;;5.45;2.50;;;;;;;;;;5034813;28;20037;-73
2021/04/27 01:19:56;;;;;;;5.43;2.67;;;;;;;;;;5034928;28;20104;-74
2021/04/27 01:22:40;;;;;;;4.60;2.03;;;;;;;;;;5033627;28;20057;-73
2021/04/27 01:25:07;;;;;;;4.68;1.90;;;;;;;;;;5017448;28;20033;-73
2021/04/27 01:27:33;;;;;;;1.92;1.50;;;;;;;;;;5034951;28;20490;-73
2021/04/27 01:30:00;;;;;;;3.00;1.70;;;;;;;;;;5033675;28;20087;-73
2021/04/27 01:32:26;;;;;;;2.53;1.67;;;;;;;;;;5034601;28;20038;-73
2021/04/27 01:34:53;;;;;;;4.47;2.03;;;;;;;;;;5034452;28;20032;-73
2021/04/27 01:37:37;;;;;;;4.05;1.88;;;;;;;;;;5034162;28;20076;-73
2021/04/27 01:40:04;;;;;;;5.85;2.00;;;;;;;;;;5034630;28;20418;-73
2021/04/27 01:42:29;;;;;;;6.55;1.70;;;;;;;;;;5033250;28;20442;-73
2021/04/27 01:44:56;;;;;;;2.22;1.67;;;;;;;;;;5034503;28;20042;-74
2021/04/27 01:47:23;;;;;;;5.72;2.00;;;;;;;;;;5034133;28;20033;-73
2021/04/27 01:49:49;;;;;;;4.07;1.85;;;;;;;;;;5033035;28;20552;-73
2021/04/27 01:52:33;;;;;;;8.48;1.58;;;;;;;;;;5034168;28;20040;-73
2021/04/27 01:55:03;;;;;;;3.35;2.00;;;;;;;;;;5033189;28;20391;-73
2021/04/27 01:57:29;;;;;;;3.55;1.80;;;;;;;;;;5033172;28;20030;-73
2021/04/27 01:59:57;;;;;;;2.63;1.40;;;;;;;;;;5032668;28;20123;-73
2021/04/27 02:02:41;;;;;;;4.07;1.90;;;;;;;;;;5034031;28;20040;-73
2021/04/27 02:05:25;;;;;;;4.28;1.92;;;;;;;;;;5018264;28;20363;-73
2021/04/27 02:07:59;;;;;;;5.20;1.73;;;;;;;;;;5033159;28;20092;-73
2021/04/27 02:10:30;;;;;;;2.42;1.60;;;;;;;;;;5031805;28;20076;-73
2021/04/27 02:12:57;;;;;;;2.88;2.13;;;;;;;;;;5033944;28;20029;-73
2021/04/27 02:15:24;;;;;;;3.65;1.77;;;;;;;;;;5033972;28;20025;-73
2021/04/27 02:17:57;;;;;;;4.05;1.83;;;;;;;;;;5032608;28;20172;-73
2021/04/27 02:20:28;;;;;;;3.28;1.60;;;;;;;;;;5032788;28;20029;-73
2021/04/27 02:23:09;;;;;;;3.42;2.50;;;;;;;;;;5033674;28;20056;-73
2021/04/27 02:25:58;;;;;;;2.30;1.75;;;;;;;;;;5032427;28;20071;-73
2021/04/27 02:28:26;;;;;;;3.13;1.90;;;;;;;;;;5032304;28;20041;-73
2021/04/27 02:30:52;;;;;;;3.53;1.73;;;;;;;;;;5033676;28;20499;-73
2021/04/27 02:33:20;;;;;;;5.25;1.75;;;;;;;;;;5015398;28;20037;-73
2021/04/27 02:35:47;;;;;;;2.85;1.83;;;;;;;;;;5033310;28;20112;-73
2021/04/27 02:38:22;;;;;;;7.18;2.15;;;;;;;;;;5033620;28;20399;-73
2021/04/27 02:40:56;;;;;;;4.45;1.90;;;;;;;;;;5032011;28;20030;-73
2021/04/27 02:43:23;;;;;;;8.90;2.28;;;;;;;;;;5033597;28;20112;-73
2021/04/27 02:45:49;;;;;;;1.85;1.40;;;;;;;;;;5033068;28;20045;-73
2021/04/27 02:48:23;;;;;;;3.10;1.65;;;;;;;;;;5033266;28;20127;-73
2021/04/27 02:50:59;;;;;;;2.15;1.70;;;;;;;;;;5031893;28;20038;-73
2021/04/27 02:53:29;;;;;;;2.42;1.60;;;;;;;;;;5033121;28;20371;-73
2021/04/27 02:55:55;;;;;;;3.80;1.98;;;;;;;;;;5032209;28;20044;-73
2021/04/27 02:58:22;;;;;;;3.65;1.58;;;;;;;;;;5031948;28;20144;-73
2021/04/27 03:00:54;;;;;;;1.95;1.52;;;;;;;;;;5032248;28;20411;-73
2021/04/27 03:03:21;;;;;;;2.45;1.42;;;;;;;;;;5031892;28;20047;-73
2021/04/27 03:05:46;;;;;;;5.93;1.80;;;;;;;;;;5031705;28;20037;-73
2021/04/27 03:08:12;;;;;;;2.38;1.50;;;;;;;;;;5031783;28;20041;-73
2021/04/27 03:10:38;;;;;;;7.90;1.90;;;;;;;;;;5032772;28;20041;-73
2021/04/27 03:13:04;;;;;;;4.80;1.80;;;;;;;;;;5032790;28;20040;-73
2021/04/27 03:15:43;;;;;;;2.95;1.73;;;;;;;;;;5031813;28;20506;-73
2021/04/27 03:18:08;;;;;;;6.15;2.50;;;;;;;;;;5031363;28;20072;-73
2021/04/27 03:20:34;;;;;;;4.72;1.50;;;;;;;;;;5031704;28;20116;-73
2021/04/27 03:23:16;;;;;;;3.22;2.42;;;;;;;;;;5032596;28;20375;-73
2021/04/27 03:25:42;;;;;;;2.63;1.70;;;;;;;;;;5031809;28;20043;-74
2021/04/27 03:28:11;;;;;;;2.20;1.40;;;;;;;;;;5031478;28;20033;-74
2021/04/27 03:30:57;;;;;;;9.03;1.97;;;;;;;;;;5033064;28;20397;-74
2021/04/27 03:33:24;;;;;;;4.40;1.80;;;;;;;;;;5048040;28;20120;-74
2021/04/27 03:35:52;;;;;;;3.60;2.03;;;;;;;;;;5031531;28;20041;-74
2021/04/27 03:38:18;;;;;;;3.13;1.70;;;;;;;;;;5031430;28;20044;-74
2021/04/27 03:40:43;;;;;;;4.00;1.83;;;;;;;;;;5032695;28;20461;-73
2021/04/27 03:43:12;;;;;;;8.23;1.70;;;;;;;;;;5031632;28;20116;-73
2021/04/27 03:45:43;;;;;;;4.15;1.60;;;;;;;;;;5032581;28;20057;-73
2021/04/27 03:48:13;;;;;;;3.45;2.33;;;;;;;;;;5014529;28;20056;-73
2021/04/27 03:50:46;;;;;;;8.55;1.92;;;;;;;;;;5032477;28;20443;-73
2021/04/27 03:53:31;;;;;;;2.80;1.80;;;;;;;;;;5032675;28;20046;-73
2021/04/27 03:55:57;;;;;;;3.55;2.05;;;;;;;;;;5031492;28;20066;-73
2021/04/27 03:58:23;;;;;;;2.45;1.77;;;;;;;;;;5031451;28;20029;-73
2021/04/27 04:00:48;;;;;;;6.03;3.15;;;;;;;;;;5030723;28;20083;-73
2021/04/27 04:03:21;;;;;;;3.65;1.55;;;;;;;;;;5031236;28;20058;-74
2021/04/27 04:05:47;;;;;;;2.10;1.38;;;;;;;;;;5031187;28;20041;-73
2021/04/27 04:08:34;;;;;;;12.17;1.70;;;;;;;;;;5032507;28;20037;-73
2021/04/27 04:10:59;;;;;;;4.07;1.70;;;;;;;;;;5014840;28;20280;-73
2021/04/27 04:13:25;;;;;;;4.40;2.00;;;;;;;;;;5031234;28;20104;-73
2021/04/27 04:15:51;;;;;;;6.38;1.50;;;;;;;;;;5032737;28;20514;-73
2021/04/27 04:18:16;;;;;;;6.82;2.20;;;;;;;;;;5031084;28;20033;-73
2021/04/27 04:20:42;;;;;;;3.75;1.90;;;;;;;;;;5031334;28;20029;-73
2021/04/27 04:23:20;;;;;;;8.10;3.13;;;;;;;;;;5031170;28;20029;-73
2021/04/27 04:25:46;;;;;;;8.35;1.67;;;;;;;;;;5031047;28;20060;-73
2021/04/27 04:28:12;;;;;;;3.67;1.80;;;;;;;;;;5031018;28;20053;-73
2021/04/27 04:30:38;;;;;;;12.68;2.03;;;;;;;;;;5035431;28;20029;-73
2021/04/27 04:33:22;;;;;;;17.58;4.38;;;;;;;;;;5035509;28;20043;-73
2021/04/27 04:36:07;;;;;;;3.13;1.63;;;;;;;;;;5035537;28;20103;-73
2021/04/27 04:38:51;;;;;;;6.40;1.88;;;;;;;;;;5035539;28;20134;-73
2021/04/27 04:41:35;;;;;;;7.68;1.92;;;;;;;;;;5035765;28;20045;-73
2021/04/27 04:44:39;;;;;;;3.10;1.60;;;;;;;;;;4974398;28;20051;-74
2021/04/27 04:47:23;;;;;;;5.10;1.90;;;;;;;;;;4974457;28;20077;-73
2021/04/27 04:50:09;;;;;;;11.50;3.50;;;;;;;;;;5017983;28;20064;-73
2021/04/27 04:53:07;;;;;;;15.35;2.58;;;;;;;;;;5001797;28;20103;-73
2021/04/27 04:55:41;;;;;;;13.57;2.55;;;;;;;;;;5035540;28;20150;-74
2021/04/27 04:58:19;;;;;;;7.55;2.20;;;;;;;;;;5034231;28;20056;-73
2021/04/27 05:01:05;;;;;;;6.60;2.47;;;;;;;;;;5034724;28;20079;-74
2021/04/27 05:03:38;;;;;;;16.88;3.42;;;;;;;;;;5033898;28;20052;-74
2021/04/27 05:06:22;;;;;;;7.03;1.95;;;;;;;;;;5035250;28;20137;-74
2021/04/27 05:09:08;;;;;;;6.07;1.83;;;;;;;;;;5035399;28;20052;-74
2021/04/27 05:11:43;;;;;;;10.82;2.00;;;;;;;;;;5036558;28;20043;-74
2021/04/27 05:14:37;;;;;;;3.05;1.38;;;;;;;;;;5033497;28;20041;-74
2021/04/27 05:17:06;;;;;;;2.78;1.67;;;;;;;;;;5035280;28;20052;-74
2021/04/27 05:19:32;;;;;;;4.90;1.73;;;;;;;;;;5035048;28;20034;-77
2021/04/27 05:21:59;;;;;;;2.88;1.73;;;;;;;;;;5033816;28;20075;-77
2021/04/27 05:24:25;;;;;;;9.80;1.50;;;;;;;;;;5033699;28;20517;-75
2021/04/27 05:26:52;;;;;;;5.63;2.60;;;;;;;;;;5033731;28;20043;-75
2021/04/27 05:29:18;;;;;;;8.35;2.10;;;;;;;;;;5034665;28;20198;-77
2021/04/27 05:31:43;;;;;;;5.47;2.05;;;;;;;;;;5034909;28;20021;-76
2021/04/27 05:34:09;;;;;;;6.05;2.22;;;;;;;;;;5033939;28;20037;-76
2021/04/27 05:36:34;;;;;;;5.88;2.63;;;;;;;;;;5033479;28;20029;-76
2021/04/27 05:39:00;;;;;;;10.57;3.55;;;;;;;;;;5034681;28;20080;-75
2021/04/27 05:41:28;;;;;;;8.07;2.63;;;;;;;;;;5033062;28;20049;-76
2021/04/27 05:43:53;;;;;;;8.68;2.45;;;;;;;;;;5034172;28;20099;-76
2021/04/27 05:46:19;;;;;;;7.97;2.72;;;;;;;;;;5033222;28;20145;-74
2021/04/27 05:48:44;;;;;;;9.50;3.70;;;;;;;;;;5034085;28;20038;-76
2021/04/27 05:51:09;;;;;;;8.13;4.20;;;;;;;;;;5033231;28;20052;-73
2021/04/27 05:53:35;;;;;;;13.75;5.55;;;;;;;;;;5034448;28;20033;-75
2021/04/27 05:56:00;;;;;;;9.23;4.53;;;;;;;;;;5034419;28;20037;-75
2021/04/27 05:58:26;;;;;;;10.60;5.20;;;;;;;;;;5032919;28;20033;-74
2021/04/27 06:00:51;;;;;;;8.65;4.80;;;;;;;;;;5032500;28;20033;-75
2021/04/27 06:03:16;;;;;;;12.27;5.38;;;;;;;;;;5034065;28;20044;-73
2021/04/27 06:05:42;;;;;;;11.05;4.93;;;;;;;;;;5033554;28;20037;-74
2021/04/27 06:08:07;;;;;;;7.68;4.68;;;;;;;;;;5032798;28;20063;-72
2021/04/27 06:10:32;;;;;;;8.07;4.25;;;;;;;;;;5034128;28;20083;-74
2021/04/27 06:12:58;;;;;;;9.45;4.90;;;;;;;;;;5032856;28;20041;-73
2021/04/27 06:15:23;;;;;;;13.02;4.60;;;;;;;;;;5033530;28;20041;-74
2021/04/27 06:17:49;;;;;;;7.32;4.00;;;;;;;;;;5024101;28;20041;-75
2021/04/27 06:20:14;;;;;;;9.07;3.95;;;;;;;;;;5014286;28;20029;-75
2021/04/27 06:22:40;;;;;;;10.25;4.70;;;;;;;;;;5033413;28;20052;-75
2021/04/27 06:25:08;;;;;;;7.50;4.25;;;;;;;;;;5032424;28;20025;-77
2021/04/27 06:27:35;;;;;;;12.70;4.60;;;;;;;;;;5032563;28;20036;-74
2021/04/27 06:30:02;;;;;;;8.23;3.75;;;;;;;;;;5032131;28;20116;-73
2021/04/27 06:32:28;;;;;;;6.32;3.53;;;;;;;;;;5033269;28;20395;-74
2021/04/27 06:34:54;;;;;;;14.13;2.88;;;;;;;;;;5032952;28;20037;-73
2021/04/27 06:37:21;;;;;;;6.38;2.38;;;;;;;;;;5033481;28;20080;-74
2021/04/27 06:39:46;;;;;;;14.40;3.08;;;;;;;;;;5033396;28;20065;-74
2021/04/27 06:42:12;;;;;;;16.88;3.42;;;;;;;;;;5033568;28;20081;-74
2021/04/27 06:44:37;;;;;;;11.88;2.38;;;;;;;;;;5033252;28;20120;-74
2021/04/27 06:47:04;;;;;;;6.15;1.83;;;;;;;;;;5033388;28;20072;-74
2021/04/27 06:49:29;;;;;;;7.55;1.92;;;;;;;;;;5032120;28;20045;-74
2021/04/27 06:51:55;;;;;;;14.60;2.20;;;;;;;;;;5033310;28;20036;-74
2021/04/27 06:54:20;;;;;;;8.38;2.97;;;;;;;;;;5033014;28;20428;-74
2021/04/27 06:56:46;;;;;;;8.85;2.28;;;;;;;;;;5033383;28;20040;-73
2021/04/27 06:59:13;;;;;;;7.90;2.08;;;;;;;;;;5032953;28;20108;-76
2021/04/27 07:01:39;;;;;;;12.05;2.10;;;;;;;;;;5033072;28;20399;-76
2021/04/27 07:04:04;;;;;;;10.85;2.00;;;;;;;;;;5033199;28;20120;-76
2021/04/27 07:06:30;;;;;;;5.00;2.08;;;;;;;;;;5032856;28;20037;-73
2021/04/27 07:08:55;;;;;;;8.05;1.95;;;;;;;;;;5032944;28;20111;-75
2021/04/27 07:11:21;;;;;;;7.22;1.67;;;;;;;;;;5033178;28;20021;-72
2021/04/27 07:13:46;;;;;;;10.63;2.10;;;;;;;;;;5031519;28;20036;-75
2021/04/27 07:16:11;;;;;;;5.63;1.58;;;;;;;;;;5033090;28;20447;-76
2021/04/27 07:18:37;;;;;;;8.32;1.90;;;;;;;;;;5032772;28;20037;-76
2021/04/27 07:21:03;;;;;;;10.30;1.73;;;;;;;;;;5032831;28;20486;-76
2021/04/27 07:23:29;;;;;;;8.88;2.00;;;;;;;;;;5031916;28;20067;-77
2021/04/27 07:25:54;;;;;;;10.05;1.60;;;;;;;;;;5033119;28;20088;-75
2021/04/27 07:28:20;;;;;;;5.85;1.92;;;;;;;;;;5033043;28;20489;-72
2021/04/27 07:30:46;;;;;;;11.10;1.80;;;;;;;;;;5032499;28;20172;-73
2021/04/27 07:33:11;;;;;;;8.65;2.00;;;;;;;;;;5032730;28;20063;-74
2021/04/27 07:35:37;;;;;;;4.68;1.58;;;;;;;;;;5032593;28;20042;-75
2021/04/27 07:38:04;;;;;;;7.10;1.70;;;;;;;;;;5031793;28;20491;-75
2021/04/27 07:40:31;;;;;;;11.23;2.10;;;;;;;;;;5031401;28;20037;-74
2021/04/27 07:42:57;;;;;;;10.75;2.03;;;;;;;;;;5031454;28;20041;-74
2021/04/27 07:45:23;;;;;;;6.82;1.40;;;;;;;;;;5026210;28;20054;-75
2021/04/27 07:47:48;;;;;;;5.72;1.58;;;;;;;;;;5029010;28;20064;-73
2021/04/27 07:50:14;;;;;;;2.78;1.60;;;;;;;;;;5032625;28;20077;-75
2021/04/27 07:52:40;;;;;;;6.03;1.80;;;;;;;;;;5032610;28;20037;-73
2021/04/27 07:55:08;;;;;;;7.20;1.98;;;;;;;;;;5032677;28;20151;-74
2021/04/27 07:57:34;;;;;;;6.00;1.40;;;;;;;;;;5032041;28;20048;-74
2021/04/27 07:59:59;;;;;;;3.95;1.77;;;;;;;;;;5032459;28;20034;-75
2021/04/27 08:02:25;;;;;;;4.75;1.83;;;;;;;;;;5032339;28;20041;-74
2021/04/27 08:04:51;;;;;;;4.70;1.67;;;;;;;;;;5034059;28;20032;-74
2021/04/27 08:07:16;;;;;;;4.05;1.90;;;;;;;;;;5036291;28;20050;-73
2021/04/27 08:09:42;;;;;;;8.18;2.03;;;;;;;;;;5035319;28;20037;-76
2021/04/27 08:12:07;;;;;;;5.50;2.08;;;;;;;;;;5036298;28;20040;-74
2021/04/27 08:14:34;;;;;;;6.40;1.48;;;;;;;;;;5034699;28;20033;-74
2021/04/27 08:17:00;;;;;;;4.40;1.30;;;;;;;;;;5034516;28;20038;-72
2021/04/27 08:19:25;;;;;;;13.63;1.75;;;;;;;;;;5035879;28;20194;-72
2021/04/27 08:21:50;;;;;;;5.80;1.73;;;;;;;;;;5034842;28;20037;-73
2021/04/27 08:24:16;;;;;;;5.43;1.65;;;;;;;;;;5035713;28;20033;-72
2021/04/27 08:26:42;;;;;;;9.90;2.00;;;;;;;;;;5035945;28;20048;-74
2021/04/27 08:29:07;;;;;;;8.52;1.80;;;;;;;;;;5035988;28;20037;-73
2021/04/27 08:31:33;;;;;;;2.65;1.60;;;;;;;;;;5035997;28;20033;-74
2021/04/27 08:33:59;;;;;;;3.53;1.40;;;;;;;;;;5035886;28;20103;-73
2021/04/27 08:36:26;;;;;;;7.78;1.90;;;;;;;;;;5036025;28;20041;-73
2021/04/27 08:38:52;;;;;;;2.60;1.77;;;;;;;;;;5035796;28;20393;-73
2021/04/27 08:41:22;;;;;;;8.60;3.03;;;;;;;;;;5035556;28;20121;-74
2021/04/27 08:43:47;;;;;;;6.00;1.75;;;;;;;;;;5033325;28;20033;-72
2021/04/27 08:46:13;;;;;;;4.20;2.28;;;;;;;;;;5035202;28;20041;-72
2021/04/27 08:48:38;;;;;;;7.85;2.00;;;;;;;;;;5035302;28;20037;-73
2021/04/27 08:51:04;;;;;;;6.45;2.05;;;;;;;;;;5034275;28;20034;-73
2021/04/27 08:53:29;;;;;;;3.92;1.70;;;;;;;;;;5035632;28;20348;-73
2021/04/27 08:55:55;;;;;;;4.15;1.67;;;;;;;;;;5035501;28;20045;-72
2021/04/27 08:58:20;;;;;;;6.28;1.77;;;;;;;;;;5034984;28;20033;-74
2021/04/27 09:00:46;;;;;;;23.95;2.28;;;;;;;;;;5034299;28;20108;-72
2021/04/27 09:03:12;;;;;;;16.60;2.55;;;;;;;;;;5034213;28;20044;-72
2021/04/27 09:05:42;;;;;;;11.70;2.92;;;;;;;;;;5035134;28;20042;-72
2021/04/27 09:08:07;;;;;;;4.80;1.60;;;;;;;;;;5035310;28;20475;-72
2021/04/27 09:10:43;;;;;;;5.53;2.08;;;;;;;;;;5034199;28;20080;-72
2021/04/27 09:13:14;;;;;;;6.38;1.95;;;;;;;;;;5035204;28;20045;-73
2021/04/27 09:15:50;;;;;;;8.32;1.77;;;;;;;;;;5034982;28;20037;-73
2021/04/27 09:18:32;;;;;;;5.88;1.80;;;;;;;;;;5034969;28;20543;-73
2021/04/27 09:21:00;;;;;;;9.70;1.90;;;;;;;;;;5034547;28;20045;-73
2021/04/27 09:23:27;;;;;;;8.68;1.70;;;;;;;;;;5034101;28;20367;-73
2021/04/27 09:26:09;;;;;;;6.88;2.13;;;;;;;;;;5033569;28;20056;-73
2021/04/27 09:28:36;;;;;;;6.22;1.85;;;;;;;;;;5034864;28;20045;-73
2021/04/27 09:31:22;;;;;;;3.70;1.67;;;;;;;;;;5033604;28;20044;-73
2021/04/27 09:33:49;;;;;;;4.03;1.88;;;;;;;;;;5034924;28;20091;-73
2021/04/27 09:36:24;;;;;;;4.35;1.80;;;;;;;;;;5034344;28;20072;-73
2021/04/27 09:38:54;;;;;;;2.72;1.70;;;;;;;;;;5032677;28;20061;-73
2021/04/27 09:41:25;;;;;;;2.60;1.50;;;;;;;;;;5034396;28;20060;-73
2021/04/27 09:43:51;;;;;;;14.10;2.00;;;;;;;;;;5034610;28;20438;-73
2021/04/27 09:46:20;;;;;;;6.57;2.05;;;;;;;;;;5034451;28;20045;-73
2021/04/27 09:48:51;;;;;;;6.78;1.90;;;;;;;;;;5034364;28;20033;-72
2021/04/27 09:51:19;;;;;;;4.05;2.00;;;;;;;;;;5034425;28;20029;-74
2021/04/27 09:54:02;;;;;;;2.65;1.48;;;;;;;;;;5034433;28;20069;-73
2021/04/27 09:56:35;;;;;;;6.15;2.22;;;;;;;;;;5034326;28;20037;-73
2021/04/27 09:59:04;;;;;;;6.85;2.10;;;;;;;;;;5034224;28;20033;-73
2021/04/27 10:01:30;;;;;;;7.25;1.88;;;;;;;;;;5033746;28;20045;-73
2021/04/27 10:03:55;;;;;;;3.47;1.63;;;;;;;;;;5034275;28;20480;-75
2021/04/27 12:43:04;;;;;;;5.93;1.92;;;;;;;;;;5110945;27;20319;-73
2021/04/27 12:45:48;;;;;;;4.15;1.90;;;;;;;;;;5109887;28;20056;-73
2021/04/27 12:48:15;;;;;;;8.95;1.90;;;;;;;;;;5110587;28;20047;-73
2021/04/27 12:50:43;;;;;;;5.90;2.13;;;;;;;;;;5110812;28;20507;-73
2021/04/27 12:53:09;;;;;;;11.48;2.35;;;;;;;;;;5109851;28;20417;-73
2021/04/27 12:55:36;;;;;;;3.78;1.70;;;;;;;;;;5110822;28;20049;-73
2021/04/27 12:58:24;;;;;;;14.50;2.60;;;;;;;;;;5110985;28;20060;-72
2021/04/27 13:00:54;;;;;;;4.20;2.50;;;;;;;;;;5110466;28;20035;-73
2021/04/27 13:03:26;;;;;;;8.35;2.30;;;;;;;;;;5110754;28;20039;-72
2021/04/27 13:05:52;;;;;;;8.25;2.20;;;;;;;;;;5110509;28;20503;-73
2021/04/27 13:08:25;;;;;;;11.57;2.40;;;;;;;;;;5110360;28;20038;-73
2021/04/27 13:10:51;;;;;;;6.32;2.55;;;;;;;;;;5110076;28;20019;-72
2021/04/27 13:13:20;;;;;;;3.03;1.88;;;;;;;;;;5110388;28;20447;-72
2021/04/27 13:15:58;;;;;;;7.80;2.28;;;;;;;;;;5110441;28;20526;-72
2021/04/27 13:18:24;;;;;;;6.97;2.35;;;;;;;;;;5110408;28;20040;-72
2021/04/27 13:20:55;;;;;;;4.40;2.40;;;;;;;;;;5110304;28;20385;-72
2021/04/27 13:23:26;;;;;;;7.13;2.13;;;;;;;;;;5108986;28;20032;-72
2021/04/27 13:26:04;;;;;;;7.25;2.38;;;;;;;;;;5109866;28;20059;-72
2021/04/27 13:28:32;;;;;;;6.47;2.25;;;;;;;;;;5110212;28;20035;-72
2021/04/27 13:30:58;;;;;;;9.82;2.22;;;;;;;;;;5110089;28;20031;-72
2021/04/27 13:33:43;;;;;;;5.53;2.63;;;;;;;;;;5109064;28;20043;-72
2021/04/27 13:36:09;;;;;;;5.95;2.50;;;;;;;;;;5109991;28;20112;-72
2021/04/27 13:38:39;;;;;;;7.30;2.42;;;;;;;;;;5110026;28;20039;-72
2021/04/27 13:41:08;;;;;;;3.72;2.20;;;;;;;;;;5109472;28;20696;-72
2021/04/27 13:43:59;;;;;;;10.18;2.00;;;;;;;;;;5109862;28;20032;-72
2021/04/27 13:46:25;;;;;;;5.32;2.22;;;;;;;;;;5108580;28;20060;-73
2021/04/27 13:48:50;;;;;;;4.35;2.10;;;;;;;;;;5108780;28;20036;-73
2021/04/27 13:51:16;;;;;;;7.10;4.13;;;;;;;;;;5109968;28;20055;-73
2021/04/27 13:53:42;;;;;;;7.32;2.40;;;;;;;;;;5098181;28;20031;-73
2021/04/27 13:56:11;;;;;;;4.20;2.10;;;;;;;;;;5096083;28;20055;-73
2021/04/27 13:58:37;;;;;;;5.05;2.15;;;;;;;;;;5096130;28;20528;-73
2021/04/27 14:01:03;;;;;;;3.13;2.20;;;;;;;;;;5095897;28;20142;-73
2021/04/27 14:03:28;;;;;;;11.82;2.20;;;;;;;;;;5096307;28;20062;-73
2021/04/27 14:05:54;;;;;;;6.85;2.15;;;;;;;;;;5094803;28;20036;-73
2021/04/27 14:08:19;;;;;;;8.95;2.42;;;;;;;;;;5096013;28;20119;-73
2021/04/27 14:10:46;;;;;;;3.63;2.22;;;;;;;;;;5094453;28;20101;-73
2021/04/27 14:13:12;;;;;;;5.55;2.38;;;;;;;;;;5094792;28;20085;-73
2021/04/27 14:15:42;;;;;;;7.25;2.25;;;;;;;;;;5095737;28;20163;-73
2021/04/27 14:18:09;;;;;;;7.00;2.95;;;;;;;;;;5095744;28;20043;-73
2021/04/27 14:20:35;;;;;;;9.82;2.42;;;;;;;;;;5095746;28;20067;-73
2021/04/27 14:23:06;;;;;;;5.75;2.35;;;;;;;;;;5095941;28;20070;-73
2021/04/27 14:25:33;;;;;;;3.40;2.22;;;;;;;;;;5095543;28;20039;-73
2021/04/27 14:27:59;;;;;;;3.63;2.03;;;;;;;;;;5095418;28;20034;-73
2021/04/27 14:30:24;;;;;;;6.47;2.63;;;;;;;;;;5095509;28;20114;-72
2021/04/27 14:32:52;;;;;;;4.82;2.33;;;;;;;;;;5095485;28;20426;-73
2021/04/27 14:35:21;;;;;;;4.32;2.20;;;;;;;;;;5095317;28;20032;-73
2021/04/27 14:37:47;;;;;;;6.28;2.63;;;;;;;;;;5095379;28;20535;-73
2021/04/27 14:40:15;;;;;;;5.63;2.47;;;;;;;;;;5093727;28;20058;-73
2021/04/27 14:42:41;;;;;;;4.00;2.47;;;;;;;;;;5093643;28;20554;-73
2021/04/27 14:45:09;;;;;;;8.95;2.75;;;;;;;;;;5095471;28;20088;-73
2021/04/27 14:47:35;;;;;;;7.85;2.38;;;;;;;;;;5095211;28;20024;-73
2021/04/27 14:50:00;;;;;;;5.68;2.40;;;;;;;;;;5094085;28;20367;-73
2021/04/27 14:52:26;;;;;;;4.15;1.98;;;;;;;;;;5095172;28;20067;-73
2021/04/27 14:54:51;;;;;;;7.32;2.30;;;;;;;;;;5094807;28;20472;-73
2021/04/27 14:57:17;;;;;;;10.25;3.70;;;;;;;;;;5094433;28;20054;-73
2021/04/27 14:59:42;;;;;;;6.90;2.20;;;;;;;;;;5095070;28;20077;-73
2021/04/27 15:02:08;;;;;;;10.82;2.67;;;;;;;;;;5095099;28;20040;-73
2021/04/27 15:04:33;;;;;;;4.47;2.67;;;;;;;;;;5092690;28;20122;-73
2021/04/27 15:06:59;;;;;;;3.40;2.20;;;;;;;;;;5094791;28;20089;-73
2021/04/27 15:09:25;;;;;;;8.98;2.20;;;;;;;;;;5094684;28;20119;-73
2021/04/27 15:11:51;;;;;;;8.90;2.60;;;;;;;;;;5094284;28;20028;-73
2021/04/27 15:14:16;;;;;;;5.13;2.13;;;;;;;;;;5094752;28;20039;-73
2021/04/27 15:16:43;;;;;;;5.45;2.45;;;;;;;;;;5093636;28;20070;-73
2021/04/27 15:19:10;;;;;;;4.93;2.88;;;;;;;;;;5093524;28;20366;-72
2021/04/27 15:21:36;;;;;;;9.80;2.50;;;;;;;;;;5094480;28;20093;-72
2021/04/27 15:24:04;;;;;;;6.68;2.30;;;;;;;;;;5094364;28;20028;-73
2021/04/27 15:26:30;;;;;;;8.18;2.40;;;;;;;;;;5094043;28;20126;-73
2021/04/27 15:28:56;;;;;;;7.13;2.78;;;;;;;;;;5093228;28;20075;-72
2021/04/27 15:31:22;;;;;;;5.70;2.78;;;;;;;;;;5094122;28;20063;-72
2021/04/27 15:33:47;;;;;;;8.45;2.38;;;;;;;;;;5094279;28;20040;-73
2021/04/27 15:36:13;;;;;;;6.13;2.47;;;;;;;;;;5093728;28;20032;-72
2021/04/27 15:38:40;;;;;;;6.50;2.83;;;;;;;;;;5093999;28;20032;-72
2021/04/27 15:41:07;;;;;;;9.32;2.65;;;;;;;;;;5093547;28;20123;-73
2021/04/27 15:43:33;;;;;;;9.68;3.00;;;;;;;;;;5094357;28;20097;-73
2021/04/27 15:45:59;;;;;;;8.20;2.88;;;;;;;;;;5094079;28;20036;-73
2021/04/27 15:48:26;;;;;;;5.90;2.40;;;;;;;;;;5094105;28;20032;-73
2021/04/27 15:50:52;;;;;;;13.10;3.20;;;;;;;;;;5094016;28;20096;-73
2021/04/27 15:53:17;;;;;;;4.43;2.35;;;;;;;;;;5093953;28;20076;-73
2021/04/27 15:55:42;;;;;;;7.53;2.55;;;;;;;;;;5093717;28;20028;-73
2021/04/27 15:58:08;;;;;;;5.05;3.28;;;;;;;;;;5093837;28;20457;-73
2021/04/27 16:00:34;;;;;;;8.27;2.17;;;;;;;;;;5093892;28;20032;-73
2021/04/27 16:02:59;;;;;;;9.88;3.17;;;;;;;;;;5093862;28;20036;-72
2021/04/27 16:05:26;;;;;;;10.25;3.70;;;;;;;;;;5093701;28;20067;-72
2021/04/27 16:07:52;;;;;;;4.15;2.08;;;;;;;;;;5092252;28;20040;-73
2021/04/27 16:10:19;;;;;;;6.88;2.50;;;;;;;;;;5091852;28;20106;-73
2021/04/27 16:12:46;;;;;;;5.35;2.53;;;;;;;;;;5093358;28;20031;-74
2021/04/27 16:15:12;;;;;;;4.68;2.33;;;;;;;;;;5093622;28;20035;-74
2021/04/27 16:17:37;;;;;;;7.75;2.80;;;;;;;;;;5093356;28;20496;-74
2021/04/27 16:20:04;;;;;;;8.88;2.70;;;;;;;;;;5092740;28;20036;-74
2021/04/27 16:22:29;;;;;;;8.23;2.70;;;;;;;;;;5092691;28;20400;-74
2021/04/27 16:24:55;;;;;;;7.88;2.65;;;;;;;;;;5092065;28;20047;-72
2021/04/27 16:27:20;;;;;;;5.13;2.80;;;;;;;;;;5093647;28;20377;-73
2021/04/27 16:29:46;;;;;;;11.70;2.83;;;;;;;;;;5092138;28;20040;-73
2021/04/27 16:32:12;;;;;;;11.23;3.28;;;;;;;;;;5093599;28;20036;-74
2021/04/27 16:34:38;;;;;;;8.68;3.00;;;;;;;;;;5092275;28;20485;-73
2021/04/27 16:37:05;;;;;;;7.30;3.33;;;;;;;;;;5092881;28;20055;-73
2021/04/27 16:39:31;;;;;;;8.65;2.55;;;;;;;;;;5093110;28;20036;-73
2021/04/27 16:41:56;;;;;;;6.22;2.95;;;;;;;;;;5091418;28;20359;-74
2021/04/27 16:44:21;;;;;;;5.80;3.25;;;;;;;;;;5092038;28;20032;-73
2021/04/27 16:46:47;;;;;;;7.97;2.45;;;;;;;;;;5093096;28;20116;-73
2021/04/27 16:49:13;;;;;;;9.25;2.80;;;;;;;;;;5093264;28;20063;-73
2021/04/27 16:51:39;;;;;;;6.28;2.40;;;;;;;;;;5093083;28;20119;-73
2021/04/27 16:54:05;;;;;;;7.20;2.95;;;;;;;;;;5093103;28;20039;-72
2021/04/27 16:56:31;;;;;;;7.50;2.55;;;;;;;;;;5091589;28;20481;-73
2021/04/27 16:58:56;;;;;;;6.30;2.70;;;;;;;;;;5093174;28;20036;-73
2021/04/27 17:01:22;;;;;;;12.45;5.43;;;;;;;;;;5092903;28;20040;-73
2021/04/27 17:03:49;;;;;;;20.38;8.68;;;;;;;;;;5093106;28;20040;-71
2021/04/27 17:06:14;;;;;;;10.27;5.53;;;;;;;;;;5091363;28;20036;-72
2021/04/27 17:08:39;;;;;;;9.20;4.15;;;;;;;;;;5092977;28;20047;-72
2021/04/27 17:11:05;;;;;;;7.15;3.10;;;;;;;;;;5092671;28;20059;-72
2021/04/27 17:13:31;;;;;;;6.97;3.30;;;;;;;;;;5090306;28;20028;-72
2021/04/27 17:15:56;;;;;;;9.48;2.50;;;;;;;;;;5091343;28;20499;-72
2021/04/27 17:18:22;;;;;;;6.00;2.60;;;;;;;;;;5092738;28;20089;-72
2021/04/27 17:20:49;;;;;;;5.80;2.72;;;;;;;;;;5092583;28;20032;-72
2021/04/27 17:23:14;;;;;;;8.52;2.88;;;;;;;;;;5092888;28;20040;-72
2021/04/27 17:25:40;;;;;;;10.95;2.88;;;;;;;;;;5092574;28;20043;-72